createdAt,value
2019-03-06T00:01:03.705Z,100646.92
2019-03-06T00:03:34.400Z,100641.63
2019-03-06T00:06:16.244Z,100635.44
2019-03-06T00:08:41.518Z,100634.03
2019-03-06T00:11:14.440Z,100631.75
2019-03-06T00:13:44.830Z,100628.59
2019-03-06T00:16:17.246Z,100627.36
2019-03-06T00:18:49.640Z,100629.64
2019-03-06T00:21:21.797Z,100622.22
2019-03-06T00:23:53.639Z,100624.16
2019-03-06T00:26:27.537Z,100614.45
2019-03-06T00:28:57.528Z,100617.27
2019-03-06T00:31:28.760Z,100608.17
2019-03-06T00:33:59.331Z,100601.67
2019-03-06T00:36:31.808Z,100609.18
2019-03-06T00:39:02.165Z,100604.44
2019-03-06T00:41:41.086Z,100602.90
2019-03-06T00:44:12.414Z,100609.66
2019-03-06T00:46:44.331Z,100611.62
2019-03-06T00:49:14.595Z,100606.13
2019-03-06T00:51:47.939Z,100606.13
2019-03-06T00:54:19.850Z,100602.66
2019-03-06T00:57:00.508Z,100599.45
2019-03-06T00:59:29.307Z,100598.36
2019-03-06T01:02:05.258Z,100592.73
2019-03-06T01:05:33.099Z,100594.44
2019-03-06T01:07:09.516Z,100589.66
2019-03-06T01:09:39.812Z,100586.86
2019-03-06T01:12:17.346Z,100589.00
2019-03-06T01:14:47.936Z,100587.65
2019-03-06T01:17:18.514Z,100584.66
2019-03-06T01:19:49.474Z,100578.30
2019-03-06T01:22:24.467Z,100574.48
2019-03-06T01:24:54.784Z,100574.48
2019-03-06T01:27:27.939Z,100577.47
2019-03-06T01:29:59.881Z,100571.59
2019-03-06T01:32:30.648Z,100567.83
2019-03-06T01:35:28.984Z,100553.91
2019-03-06T01:38:29.208Z,100552.30
2019-03-06T01:41:21.486Z,100553.70
2019-03-06T01:44:01.180Z,100540.58
2019-03-06T01:46:32.281Z,100538.44
2019-03-06T01:49:04.035Z,100538.56
2019-03-06T01:51:36.547Z,100526.63
2019-03-06T01:54:11.379Z,100524.56
2019-03-06T01:56:42.475Z,100517.41
2019-03-06T01:59:17.952Z,100517.41
2019-03-06T02:01:46.549Z,100504.95
2019-03-06T02:04:44.570Z,100504.95
2019-03-06T02:07:09.718Z,100503.02
2019-03-06T02:09:40.291Z,100501.80
2019-03-06T02:12:11.008Z,100494.03
2019-03-06T02:14:41.396Z,100494.03
2019-03-06T02:17:13.766Z,100497.58
2019-03-06T02:19:44.350Z,100498.85
2019-03-06T02:22:16.493Z,100497.19
2019-03-06T02:24:46.970Z,100496.04
2019-03-06T02:27:19.271Z,100492.67
2019-03-06T02:30:15.647Z,100483.44
2019-03-06T02:32:43.059Z,100479.62
2019-03-06T02:35:15.779Z,100469.84
2019-03-06T02:37:47.255Z,100465.62
2019-03-06T02:40:20.365Z,100454.97
2019-03-06T02:42:50.845Z,100446.06
2019-03-06T02:45:25.124Z,100438.42
2019-03-06T02:47:55.490Z,100434.38
2019-03-06T02:50:28.593Z,100434.33
2019-03-06T02:52:58.857Z,100426.22
2019-03-06T02:55:33.248Z,100427.54
2019-03-06T02:58:25.622Z,100429.69
2019-03-06T03:01:21.113Z,100424.47
2019-03-06T03:04:18.568Z,100426.18
2019-03-06T03:07:01.271Z,100423.41
2019-03-06T03:09:36.539Z,100417.16
2019-03-06T03:12:07.219Z,100406.98
2019-03-06T03:14:41.748Z,100395.53
2019-03-06T03:17:12.366Z,100392.27
2019-03-06T03:19:46.903Z,100384.20
2019-03-06T03:22:18.781Z,100383.20
2019-03-06T03:24:54.980Z,100384.88
2019-03-06T03:27:21.689Z,100383.13
2019-03-06T03:29:55.760Z,100387.42
2019-03-06T03:32:26.350Z,100383.05
2019-03-06T03:34:58.197Z,100383.05
2019-03-06T03:37:28.822Z,100381.30
2019-03-06T03:40:04.112Z,100381.42
2019-03-06T03:42:34.691Z,100389.86
2019-03-06T03:45:07.683Z,100388.14
2019-03-06T03:47:37.949Z,100383.84
2019-03-06T03:50:10.427Z,100374.81
2019-03-06T03:52:42.857Z,100368.64
2019-03-06T03:55:15.274Z,100373.30
2019-03-06T03:57:45.709Z,100369.03
2019-03-06T04:00:16.765Z,100366.72
2019-03-06T04:02:48.941Z,100366.36
2019-03-06T04:05:25.725Z,100363.69
2019-03-06T04:07:56.121Z,100357.79
2019-03-06T04:10:28.063Z,100357.03
2019-03-06T04:12:58.704Z,100353.07
2019-03-06T04:15:30.080Z,100355.58
2019-03-06T04:18:00.724Z,100350.45
2019-03-06T04:20:31.062Z,100351.73
2019-03-06T04:23:01.356Z,100350.90
2019-03-06T04:25:37.193Z,100353.67
2019-03-06T04:28:07.815Z,100351.48
2019-03-06T04:30:50.041Z,100362.15
2019-03-06T04:33:21.949Z,100352.97
2019-03-06T04:35:52.274Z,100346.60
2019-03-06T04:38:23.071Z,100338.73
2019-03-06T04:40:55.660Z,100334.19
2019-03-06T04:43:30.625Z,100323.41
2019-03-06T04:46:04.985Z,100321.63
2019-03-06T04:48:36.671Z,100315.07
2019-03-06T04:51:07.056Z,100310.55
2019-03-06T04:53:37.846Z,100300.62
2019-03-06T04:56:13.764Z,100300.62
2019-03-06T04:58:43.490Z,100302.26
2019-03-06T05:01:15.222Z,100300.50
2019-03-06T05:03:45.524Z,100295.05
2019-03-06T05:06:30.795Z,100280.06
2019-03-06T05:08:52.662Z,100283.31
2019-03-06T05:11:26.842Z,100285.75
2019-03-06T05:13:59.048Z,100279.56
2019-03-06T05:17:12.834Z,100282.52
2019-03-06T05:20:15.819Z,100280.54
2019-03-06T05:22:26.106Z,100270.67
2019-03-06T05:24:57.981Z,100271.55
2019-03-06T05:27:30.284Z,100271.55
2019-03-06T05:30:07.893Z,100246.94
2019-03-06T05:32:38.865Z,100246.94
2019-03-06T05:35:34.201Z,100233.82
2019-03-06T05:38:18.222Z,100228.75
2019-03-06T05:41:00.352Z,100227.65
2019-03-06T05:43:25.978Z,100216.58
2019-03-06T05:45:56.523Z,100217.45
2019-03-06T05:48:28.593Z,100218.02
2019-03-06T05:51:02.091Z,100215.16
2019-03-06T05:53:32.666Z,100201.68
2019-03-06T05:56:03.115Z,100200.00
2019-03-06T05:58:33.720Z,100196.81
2019-03-06T06:01:13.093Z,100187.58
2019-03-06T06:03:45.077Z,100188.17
2019-03-06T06:06:15.385Z,100175.92
2019-03-06T06:08:45.816Z,100164.84
2019-03-06T06:11:16.350Z,100154.83
2019-03-06T06:13:46.962Z,100154.58
2019-03-06T06:16:21.101Z,100154.89
2019-03-06T06:18:52.371Z,100142.27
2019-03-06T06:21:41.139Z,100145.80
2019-03-06T06:24:31.434Z,100145.90
2019-03-06T06:27:06.282Z,100135.28
2019-03-06T06:29:37.425Z,100143.53
2019-03-06T06:32:11.815Z,100140.34
2019-03-06T06:34:42.491Z,100133.77
2019-03-06T06:37:14.695Z,100136.50
2019-03-06T06:39:44.991Z,100129.65
2019-03-06T06:42:19.641Z,100136.03
2019-03-06T06:44:51.671Z,100128.92
2019-03-06T06:47:23.696Z,100123.16
2019-03-06T06:49:54.181Z,100114.22
2019-03-06T06:53:21.066Z,100112.59
2019-03-06T06:56:06.156Z,100103.56
2019-03-06T06:59:39.803Z,100090.41
2019-03-06T07:02:09.090Z,100089.13
2019-03-06T07:05:35.825Z,100086.66
2019-03-06T07:08:32.019Z,100078.70
2019-03-06T07:11:25.593Z,100070.39
2019-03-06T07:14:24.367Z,100068.75
2019-03-06T07:17:12.516Z,100063.70
2019-03-06T07:20:04.779Z,100061.14
2019-03-06T07:22:54.437Z,100048.45
2019-03-06T07:25:42.482Z,100046.78
2019-03-06T07:28:35.832Z,100040.01
2019-03-06T07:31:38.440Z,100050.30
2019-03-06T07:34:19.349Z,100046.12
2019-03-06T07:37:00.092Z,100046.16
2019-03-06T07:39:35.217Z,100053.96
2019-03-06T07:42:23.392Z,100048.05
2019-03-06T07:45:55.316Z,100055.02
2019-03-06T07:48:34.583Z,100053.55
2019-03-06T07:51:37.583Z,100049.12
2019-03-06T07:54:26.020Z,100039.69
2019-03-06T07:57:07.103Z,100034.95
2019-03-06T07:59:37.664Z,100030.37
2019-03-06T08:02:15.541Z,100037.75
2019-03-06T08:04:52.339Z,100032.84
2019-03-06T08:07:30.946Z,100016.83
2019-03-06T08:10:10.511Z,100006.08
2019-03-06T08:13:00.029Z,100001.91
2019-03-06T08:16:04.924Z,99992.64
2019-03-06T08:19:05.410Z,99985.98
2019-03-06T08:21:49.209Z,99978.31
2019-03-06T08:24:40.958Z,99969.74
2019-03-06T08:27:28.528Z,99975.89
2019-03-06T08:29:52.043Z,99971.11
2019-03-06T08:32:41.742Z,99974.14
2019-03-06T08:35:12.054Z,99965.27
2019-03-06T08:37:44.618Z,99970.70
2019-03-06T08:40:15.632Z,99964.44
2019-03-06T08:42:48.562Z,99964.60
2019-03-06T08:45:23.510Z,99957.91
2019-03-06T08:48:00.547Z,99968.64
2019-03-06T08:50:48.619Z,99978.64
2019-03-06T08:53:37.904Z,99966.64
2019-03-06T08:56:25.798Z,99959.01
2019-03-06T08:59:10.797Z,99961.56
2019-03-06T09:02:04.789Z,99944.14
2019-03-06T09:04:55.154Z,99940.13
2019-03-06T09:07:48.303Z,99939.40
2019-03-06T09:10:47.547Z,99944.02
2019-03-06T09:13:43.819Z,99936.11
2019-03-06T09:16:33.505Z,99922.50
2019-03-06T09:19:33.196Z,99916.99
2019-03-06T09:22:26.517Z,99906.23
2019-03-06T09:25:23.401Z,99903.56
2019-03-06T09:28:12.893Z,99897.80
2019-03-06T09:31:04.641Z,99878.59
2019-03-06T09:34:01.611Z,99879.05
2019-03-06T09:36:37.764Z,99868.80
2019-03-06T09:39:29.292Z,99869.75
2019-03-06T09:42:18.592Z,99862.86
2019-03-06T09:45:20.747Z,99847.88
2019-03-06T09:48:15.287Z,99839.47
2019-03-06T09:51:03.360Z,99850.30
2019-03-06T09:53:50.872Z,99838.22
2019-03-06T09:56:55.875Z,99838.42
2019-03-06T09:59:31.070Z,99832.25
2019-03-06T10:02:19.114Z,99822.72
2019-03-06T10:05:10.722Z,99828.08
2019-03-06T10:07:53.180Z,99816.94
2019-03-06T10:10:57.253Z,99812.67
2019-03-06T10:13:42.125Z,99810.48
2019-03-06T10:16:26.168Z,99811.36
2019-03-06T10:19:11.263Z,99810.92
2019-03-06T10:21:43.149Z,99814.34
2019-03-06T10:24:14.892Z,99811.31
2019-03-06T10:26:45.190Z,99811.29
2019-03-06T10:29:15.803Z,99810.07
2019-03-06T10:31:46.188Z,99810.95
2019-03-06T10:34:17.376Z,99800.22
2019-03-06T10:36:51.001Z,99809.64
2019-03-06T10:39:22.205Z,99811.37
2019-03-06T10:41:52.529Z,99806.22
2019-03-06T10:44:29.619Z,99803.20
2019-03-06T10:47:00.064Z,99800.63
2019-03-06T10:49:30.363Z,99800.16
2019-03-06T10:52:00.715Z,99791.79
2019-03-06T10:54:32.171Z,99783.98
2019-03-06T10:57:04.006Z,99769.12
2019-03-06T10:59:36.133Z,99777.22
2019-03-06T11:02:06.785Z,99778.72
2019-03-06T11:04:54.797Z,99774.12
2019-03-06T11:07:26.938Z,99773.32
2019-03-06T11:09:57.740Z,99756.67
2019-03-06T11:12:29.636Z,99761.22
2019-03-06T11:14:59.931Z,99751.62
2019-03-06T11:17:37.847Z,99763.66
2019-03-06T11:20:10.814Z,99755.36
2019-03-06T11:22:41.339Z,99755.36
2019-03-06T11:25:13.296Z,99728.63
2019-03-06T11:27:44.557Z,99731.08
2019-03-06T11:30:25.806Z,99733.72
2019-03-06T11:32:57.840Z,99733.72
2019-03-06T11:35:29.095Z,99712.92
2019-03-06T11:38:10.725Z,99705.71
2019-03-06T11:40:37.284Z,99702.73
2019-03-06T11:43:10.639Z,99692.13
2019-03-06T11:45:41.896Z,99688.98
2019-03-06T11:48:13.103Z,99677.80
2019-03-06T11:50:44.072Z,99672.30
2019-03-06T11:53:14.883Z,99672.56
2019-03-06T11:55:45.722Z,99666.70
2019-03-06T11:58:17.924Z,99660.23
2019-03-06T12:00:48.613Z,99646.30
2019-03-06T12:03:23.452Z,99649.37
2019-03-06T12:05:55.642Z,99646.88
2019-03-06T12:08:26.772Z,99645.67
2019-03-06T12:10:57.136Z,99634.05
2019-03-06T12:13:27.479Z,99620.10
2019-03-06T12:15:58.318Z,99623.62
2019-03-06T12:18:29.216Z,99622.79
2019-03-06T12:21:00.756Z,99621.02
2019-03-06T12:23:31.881Z,99622.48
2019-03-06T12:26:02.203Z,99621.89
2019-03-06T12:28:33.112Z,99602.87
2019-03-06T12:31:11.828Z,99585.69
2019-03-06T12:33:42.354Z,99585.69
2019-03-06T12:36:21.403Z,99569.02
2019-03-06T12:38:48.918Z,99581.39
2019-03-06T12:41:23.791Z,99581.30
2019-03-06T12:43:54.080Z,99577.66
2019-03-06T12:46:27.992Z,99566.78
2019-03-06T12:49:04.314Z,99571.00
2019-03-06T12:51:36.570Z,99565.23
2019-03-06T12:54:09.074Z,99563.68
2019-03-06T12:56:39.540Z,99559.92
2019-03-06T12:59:10.226Z,99574.59
2019-03-06T13:01:43.721Z,99572.95
2019-03-06T13:04:14.088Z,99568.25
2019-03-06T13:06:55.654Z,99557.10
2019-03-06T13:09:22.259Z,99557.88
2019-03-06T13:11:55.574Z,99553.99
2019-03-06T13:14:26.618Z,99551.08
2019-03-06T13:16:58.540Z,99544.67
2019-03-06T13:19:29.105Z,99542.91
2019-03-06T13:21:59.557Z,99536.77
2019-03-06T13:24:29.953Z,99532.80
2019-03-06T13:29:36.838Z,99518.55
2019-03-06T13:32:11.638Z,99512.52
2019-03-06T13:34:50.775Z,99498.27
2019-03-06T13:37:19.230Z,99481.39
2019-03-06T13:39:49.616Z,99484.10
2019-03-06T13:42:19.942Z,99482.86
2019-03-06T13:44:50.220Z,99478.99
2019-03-06T13:47:22.897Z,99493.30
2019-03-06T13:49:55.200Z,99483.92
2019-03-06T13:52:27.092Z,99494.25
2019-03-06T13:54:57.426Z,99498.59
2019-03-06T13:57:29.215Z,99489.13
2019-03-06T13:59:59.708Z,99490.41
2019-03-06T14:02:30.702Z,99499.00
2019-03-06T14:05:01.148Z,99492.19
2019-03-06T14:07:33.320Z,99501.20
2019-03-06T14:10:04.140Z,99511.51
2019-03-06T14:12:34.666Z,99519.27
2019-03-06T14:15:05.821Z,99512.91
2019-03-06T14:17:37.927Z,99512.52
2019-03-06T14:20:09.977Z,99516.55
2019-03-06T14:22:44.204Z,99513.59
2019-03-06T14:25:18.211Z,99508.91
2019-03-06T14:27:52.328Z,99503.35
2019-03-06T14:30:23.064Z,99525.15
2019-03-06T14:32:56.000Z,99520.15
2019-03-06T14:35:27.169Z,99520.15
2019-03-06T14:38:02.702Z,99530.78
2019-03-06T14:40:32.833Z,99540.45
2019-03-06T14:43:07.583Z,99534.11
2019-03-06T14:45:37.985Z,99534.11
2019-03-06T14:48:20.601Z,99548.44
2019-03-06T14:50:47.815Z,99539.55
2019-03-06T14:53:24.709Z,99520.63
2019-03-06T14:55:56.951Z,99519.38
2019-03-06T14:58:32.028Z,99499.38
2019-03-06T15:01:02.511Z,99499.38
2019-03-06T15:03:32.838Z,99497.69
2019-03-06T15:06:03.341Z,99503.23
2019-03-06T15:08:33.984Z,99501.50
2019-03-06T15:11:08.248Z,99494.23
2019-03-06T15:13:51.504Z,99486.97
2019-03-06T15:16:23.626Z,99477.30
2019-03-06T15:18:58.547Z,99471.44
2019-03-06T15:21:29.968Z,99465.04
2019-03-06T15:24:00.436Z,99453.63
2019-03-06T15:26:34.547Z,99458.80
2019-03-06T15:29:05.081Z,99449.45
2019-03-06T15:31:36.297Z,99454.94
2019-03-06T15:34:10.388Z,99447.64
2019-03-06T15:36:42.684Z,99445.89
2019-03-06T15:39:30.121Z,99439.93
2019-03-06T15:42:05.040Z,99447.61
2019-03-06T15:44:38.050Z,99440.41
2019-03-06T15:47:08.612Z,99440.84
2019-03-06T15:49:38.933Z,99426.31
2019-03-06T15:52:10.990Z,99428.06
2019-03-06T15:54:43.047Z,99418.65
2019-03-06T15:57:15.049Z,99411.36
2019-03-06T15:59:46.514Z,99414.41
2019-03-06T16:02:16.823Z,99405.00
2019-03-06T16:04:52.386Z,99396.48
2019-03-06T16:07:26.386Z,99403.33
2019-03-06T16:09:59.771Z,99400.34
2019-03-06T16:12:30.095Z,99397.39
2019-03-06T16:15:03.327Z,99389.70
2019-03-06T16:17:34.175Z,99386.63
2019-03-06T16:20:10.107Z,99386.63
2019-03-06T16:22:41.560Z,99388.75
2019-03-06T16:25:17.372Z,99388.75
2019-03-06T16:27:49.895Z,99395.11
2019-03-06T16:30:21.186Z,99392.56
2019-03-06T16:32:53.618Z,99399.37
2019-03-06T16:35:29.188Z,99395.90
2019-03-06T16:38:00.113Z,99384.17
2019-03-06T16:40:33.526Z,99379.81
2019-03-06T16:43:04.735Z,99381.48
2019-03-06T16:45:42.099Z,99380.58
2019-03-06T16:48:12.360Z,99373.38
2019-03-06T16:50:49.035Z,99379.36
2019-03-06T16:53:19.241Z,99373.41
2019-03-06T16:55:58.619Z,99378.44
2019-03-06T16:58:28.619Z,99382.22
2019-03-06T17:01:02.091Z,99392.80
2019-03-06T17:03:33.464Z,99380.88
2019-03-06T17:06:11.774Z,99380.88
2019-03-06T17:08:42.403Z,99379.72
2019-03-06T17:11:16.814Z,99375.88
2019-03-06T17:13:47.224Z,99379.72
2019-03-06T17:16:21.036Z,99371.92
2019-03-06T17:18:51.503Z,99374.00
2019-03-06T17:21:22.170Z,99386.73
2019-03-06T17:23:55.882Z,99386.73
2019-03-06T17:26:32.472Z,99391.39
2019-03-06T17:29:12.168Z,99385.06
2019-03-06T17:31:45.152Z,99384.65
2019-03-06T17:34:15.624Z,99382.54
2019-03-06T17:37:24.547Z,99385.55
2019-03-06T17:40:05.836Z,99372.75
2019-03-06T17:42:36.598Z,99382.98
2019-03-06T17:45:09.390Z,99382.98
2019-03-06T17:47:39.818Z,99377.45
2019-03-06T17:50:15.876Z,99377.84
2019-03-06T17:52:48.119Z,99367.61
2019-03-06T17:55:21.657Z,99376.14
2019-03-06T17:57:53.315Z,99369.75
2019-03-06T18:00:53.376Z,99371.89
2019-03-06T18:03:42.014Z,99360.79
2019-03-06T18:06:14.280Z,99369.71
2019-03-06T18:08:50.763Z,99372.72
2019-03-06T18:11:22.545Z,99356.50
2019-03-06T18:14:00.894Z,99355.23
2019-03-06T18:16:31.231Z,99347.14
2019-03-06T18:19:06.410Z,99340.30
2019-03-06T18:21:36.190Z,99335.18
2019-03-06T18:24:15.699Z,99333.06
2019-03-06T18:26:49.933Z,99322.41
2019-03-06T18:29:27.396Z,99309.68
2019-03-06T18:31:57.686Z,99309.68
2019-03-06T18:34:31.076Z,99313.94
2019-03-06T18:37:03.064Z,99312.23
2019-03-06T18:39:38.513Z,99315.63
2019-03-06T18:42:10.793Z,99307.59
2019-03-06T18:45:05.238Z,99313.16
2019-03-06T18:47:37.416Z,99308.06
2019-03-06T18:50:31.043Z,99317.88
2019-03-06T18:53:03.723Z,99306.42
2019-03-06T18:55:41.188Z,99305.11
2019-03-06T18:58:13.352Z,99305.58
2019-03-06T19:00:45.334Z,99299.17
2019-03-06T19:03:16.501Z,99303.49
2019-03-06T19:05:55.805Z,99296.25
2019-03-06T19:08:31.675Z,99299.30
2019-03-06T19:11:16.607Z,99298.46
2019-03-06T19:13:41.277Z,99283.09
2019-03-06T19:16:14.425Z,99282.66
2019-03-06T19:18:55.466Z,99273.31
2019-03-06T19:21:27.607Z,99273.03
2019-03-06T19:24:00.839Z,99272.62
2019-03-06T19:26:33.029Z,99263.23
2019-03-06T19:29:08.030Z,99270.52
2019-03-06T19:31:38.366Z,99266.23
2019-03-06T19:34:16.778Z,99276.95
2019-03-06T19:36:45.766Z,99269.30
2019-03-06T19:39:23.206Z,99268.85
2019-03-06T19:41:53.719Z,99264.55
2019-03-06T19:47:06.578Z,99259.41
2019-03-06T19:49:44.256Z,99263.33
2019-03-06T19:52:21.343Z,99262.47
2019-03-06T19:54:50.667Z,99267.60
2019-03-06T19:57:21.388Z,99275.69
2019-03-06T19:59:56.611Z,99268.46
2019-03-06T20:02:30.603Z,99267.58
2019-03-06T20:07:50.415Z,99264.63
2019-03-06T20:10:27.086Z,99259.06
2019-03-06T20:12:59.354Z,99253.50
2019-03-06T20:15:29.773Z,99252.61
2019-03-06T20:18:00.430Z,99252.16
2019-03-06T20:20:30.944Z,99244.90
2019-03-06T20:23:01.816Z,99247.03
2019-03-06T20:25:57.029Z,99251.23
2019-03-06T20:28:29.327Z,99246.84
2019-03-06T20:31:24.188Z,99241.27
2019-03-06T20:33:56.634Z,99246.36
2019-03-06T20:42:28.175Z,99231.82
2019-03-06T20:45:13.962Z,99237.36
2019-03-06T20:47:45.774Z,99237.76
2019-03-06T20:50:24.210Z,99247.53
2019-03-06T20:53:13.987Z,99247.53
2019-03-06T20:55:45.171Z,99243.24
2019-03-06T20:58:15.872Z,99239.86
2019-03-06T21:00:46.596Z,99241.94
2019-03-06T21:03:18.670Z,99235.97
2019-03-06T21:05:50.538Z,99238.52
2019-03-06T21:08:59.730Z,99238.08
2019-03-06T21:11:22.890Z,99241.09
2019-03-06T21:13:57.208Z,99235.11
2019-03-06T21:16:27.196Z,99238.92
2019-03-06T21:18:59.011Z,99233.39
2019-03-06T21:21:29.442Z,99235.08
2019-03-06T21:24:06.174Z,99225.70
2019-03-06T21:26:36.764Z,99228.27
2019-03-06T21:29:28.631Z,99220.17
2019-03-06T21:31:47.259Z,99215.05
2019-03-06T21:34:41.628Z,99211.62
2019-03-06T21:36:50.239Z,99209.48
2019-03-06T21:39:36.826Z,99200.98
2019-03-06T21:41:59.397Z,99198.84
2019-03-06T21:44:34.149Z,99196.28
2019-03-06T21:47:05.623Z,99191.19
2019-03-06T21:49:39.770Z,99188.20
2019-03-06T21:52:10.522Z,99192.06
2019-03-06T21:54:59.687Z,99191.27
2019-03-06T21:57:31.190Z,99191.28
2019-03-06T22:00:07.502Z,99185.34
2019-03-06T22:02:40.072Z,99181.55
2019-03-06T22:05:10.721Z,99182.38
2019-03-06T22:07:57.008Z,99173.00
2019-03-06T22:10:19.458Z,99167.41
2019-03-06T22:13:05.486Z,99167.41
2019-03-06T22:15:36.457Z,99176.39
2019-03-06T22:18:13.701Z,99157.59
2019-03-06T22:20:44.528Z,99169.98
2019-03-06T22:23:16.575Z,99169.12
2019-03-06T22:25:49.301Z,99165.67
2019-03-06T22:28:19.687Z,99158.40
2019-03-06T22:30:59.145Z,99163.91
2019-03-06T22:36:41.372Z,99145.95
2019-03-06T22:39:56.150Z,99139.98
2019-03-06T22:42:39.574Z,99139.17
2019-03-06T22:45:14.610Z,99135.33
2019-03-06T22:48:24.917Z,99139.98
2019-03-06T22:50:40.254Z,99130.59
2019-03-06T22:53:22.180Z,99124.58
2019-03-06T22:55:52.571Z,99127.58
2019-03-06T22:58:31.682Z,99117.83
2019-03-06T23:01:14.885Z,99109.71
2019-03-06T23:03:46.810Z,99104.17
2019-03-06T23:07:10.298Z,99100.30
2019-03-06T23:09:20.371Z,99094.33
2019-03-06T23:12:17.207Z,99084.08
2019-03-06T23:14:55.999Z,99077.27
2019-03-06T23:17:25.914Z,99078.61
2019-03-06T23:19:56.302Z,99075.60
2019-03-06T23:22:28.207Z,99070.02
2019-03-06T23:25:57.883Z,99071.34
2019-03-06T23:27:39.481Z,99058.50
2019-03-06T23:30:11.603Z,99062.39
2019-03-06T23:32:42.161Z,99058.14
2019-03-06T23:35:16.720Z,99043.63
2019-03-06T23:37:47.801Z,99043.64
2019-03-06T23:40:19.663Z,99047.91
2019-03-06T23:42:50.408Z,99036.83
2019-03-06T23:45:27.286Z,99027.42
2019-03-06T23:47:58.358Z,99032.53
2019-03-06T23:50:29.785Z,99035.06
2019-03-06T23:53:06.595Z,99029.47
2019-03-06T23:55:40.999Z,99032.45
2019-03-06T23:58:11.755Z,99003.50
